sensor_id;sensor_type;location;lat;lon;timestamp;P1;durP1;ratioP1;P2;durP2;ratioP2
25932;SDS011;13731;51.166;4.474;2023-04-16T00:00:50;50.63;;;47.30;;
25932;SDS011;13731;51.166;4.474;2023-04-16T00:03:16;51.53;;;48.40;;
25932;SDS011;13731;51.166;4.474;2023-04-16T00:05:42;65.13;;;61.47;;
25932;SDS011;13731;51.166;4.474;2023-04-16T00:08:08;64.40;;;60.92;;
25932;SDS011;13731;51.166;4.474;2023-04-16T00:10:34;69.93;;;66.13;;
25932;SDS011;13731;51.166;4.474;2023-04-16T00:13:00;66.18;;;62.67;;
25932;SDS011;13731;51.166;4.474;2023-04-16T00:15:26;72.45;;;68.35;;
25932;SDS011;13731;51.166;4.474;2023-04-16T00:17:52;69.22;;;65.63;;
25932;SDS011;13731;51.166;4.474;2023-04-16T00:20:17;70.10;;;66.15;;
25932;SDS011;13731;51.166;4.474;2023-04-16T00:22:44;69.82;;;65.95;;
25932;SDS011;13731;51.166;4.474;2023-04-16T00:25:11;76.47;;;72.35;;
25932;SDS011;13731;51.166;4.474;2023-04-16T00:27:38;77.60;;;73.28;;
25932;SDS011;13731;51.166;4.474;2023-04-16T00:30:05;78.28;;;73.97;;
25932;SDS011;13731;51.166;4.474;2023-04-16T00:32:31;77.68;;;73.60;;
25932;SDS011;13731;51.166;4.474;2023-04-16T00:34:57;69.97;;;66.05;;
25932;SDS011;13731;51.166;4.474;2023-04-16T00:37:23;72.22;;;68.55;;
25932;SDS011;13731;51.166;4.474;2023-04-16T00:39:49;64.43;;;60.40;;
25932;SDS011;13731;51.166;4.474;2023-04-16T00:42:15;61.85;;;58.88;;
25932;SDS011;13731;51.166;4.474;2023-04-16T00:44:41;60.22;;;57.13;;
25932;SDS011;13731;51.166;4.474;2023-04-16T00:47:06;62.65;;;58.85;;
25932;SDS011;13731;51.166;4.474;2023-04-16T00:49:33;57.53;;;54.00;;
25932;SDS011;13731;51.166;4.474;2023-04-16T00:51:59;55.50;;;52.42;;
25932;SDS011;13731;51.166;4.474;2023-04-16T00:54:27;50.63;;;47.70;;
25932;SDS011;13731;51.166;4.474;2023-04-16T00:56:53;53.90;;;51.08;;
25932;SDS011;13731;51.166;4.474;2023-04-16T00:59:20;60.05;;;56.95;;
25932;SDS011;13731;51.166;4.474;2023-04-16T01:01:46;59.13;;;56.20;;
25932;SDS011;13731;51.166;4.474;2023-04-16T01:04:12;64.50;;;60.53;;
25932;SDS011;13731;51.166;4.474;2023-04-16T01:06:38;52.60;;;49.63;;
25932;SDS011;13731;51.166;4.474;2023-04-16T01:09:04;59.53;;;56.42;;
25932;SDS011;13731;51.166;4.474;2023-04-16T01:11:30;62.85;;;59.85;;
25932;SDS011;13731;51.166;4.474;2023-04-16T01:13:56;65.60;;;61.95;;
25932;SDS011;13731;51.166;4.474;2023-04-16T01:16:22;69.68;;;65.55;;
25932;SDS011;13731;51.166;4.474;2023-04-16T01:18:50;65.65;;;62.25;;
25932;SDS011;13731;51.166;4.474;2023-04-16T01:21:16;66.00;;;62.67;;
25932;SDS011;13731;51.166;4.474;2023-04-16T01:23:43;63.33;;;59.67;;
25932;SDS011;13731;51.166;4.474;2023-04-16T01:26:08;70.10;;;66.15;;
25932;SDS011;13731;51.166;4.474;2023-04-16T01:28:34;58.28;;;55.38;;
25932;SDS011;13731;51.166;4.474;2023-04-16T01:31:00;57.38;;;54.28;;
25932;SDS011;13731;51.166;4.474;2023-04-16T01:33:41;51.97;;;49.45;;
25932;SDS011;13731;51.166;4.474;2023-04-16T01:36:09;54.03;;;51.10;;
25932;SDS011;13731;51.166;4.474;2023-04-16T01:38:35;57.72;;;54.50;;
25932;SDS011;13731;51.166;4.474;2023-04-16T01:41:01;62.17;;;59.03;;
25932;SDS011;13731;51.166;4.474;2023-04-16T01:43:27;64.75;;;61.25;;
25932;SDS011;13731;51.166;4.474;2023-04-16T01:45:57;63.45;;;59.88;;
25932;SDS011;13731;51.166;4.474;2023-04-16T01:48:38;64.45;;;60.97;;
25932;SDS011;13731;51.166;4.474;2023-04-16T01:51:03;66.13;;;62.45;;
25932;SDS011;13731;51.166;4.474;2023-04-16T01:53:30;62.28;;;58.90;;
25932;SDS011;13731;51.166;4.474;2023-04-16T01:55:56;67.95;;;64.60;;
25932;SDS011;13731;51.166;4.474;2023-04-16T01:58:22;64.68;;;61.53;;
25932;SDS011;13731;51.166;4.474;2023-04-16T02:00:47;66.32;;;63.00;;
25932;SDS011;13731;51.166;4.474;2023-04-16T02:03:14;65.95;;;62.47;;
25932;SDS011;13731;51.166;4.474;2023-04-16T02:05:41;68.38;;;65.03;;
25932;SDS011;13731;51.166;4.474;2023-04-16T02:08:07;66.80;;;63.38;;
25932;SDS011;13731;51.166;4.474;2023-04-16T02:10:33;62.33;;;58.97;;
25932;SDS011;13731;51.166;4.474;2023-04-16T02:13:01;62.72;;;59.53;;
25932;SDS011;13731;51.166;4.474;2023-04-16T02:15:27;59.63;;;56.20;;
25932;SDS011;13731;51.166;4.474;2023-04-16T02:17:53;54.00;;;51.10;;
25932;SDS011;13731;51.166;4.474;2023-04-16T02:22:55;49.53;;;46.25;;
25932;SDS011;13731;51.166;4.474;2023-04-16T02:25:22;45.05;;;42.35;;
25932;SDS011;13731;51.166;4.474;2023-04-16T02:27:51;54.13;;;50.90;;
25932;SDS011;13731;51.166;4.474;2023-04-16T02:30:37;54.40;;;51.50;;
25932;SDS011;13731;51.166;4.474;2023-04-16T02:33:04;52.00;;;49.15;;
25932;SDS011;13731;51.166;4.474;2023-04-16T02:35:37;48.08;;;45.28;;
25932;SDS011;13731;51.166;4.474;2023-04-16T02:38:03;51.58;;;48.60;;
25932;SDS011;13731;51.166;4.474;2023-04-16T02:40:30;52.05;;;48.97;;
25932;SDS011;13731;51.166;4.474;2023-04-16T02:42:56;52.92;;;49.97;;
25932;SDS011;13731;51.166;4.474;2023-04-16T02:45:22;50.63;;;47.83;;
25932;SDS011;13731;51.166;4.474;2023-04-16T02:47:49;47.65;;;44.40;;
25932;SDS011;13731;51.166;4.474;2023-04-16T02:50:15;47.20;;;44.33;;
25932;SDS011;13731;51.166;4.474;2023-04-16T02:52:42;50.78;;;47.47;;
25932;SDS011;13731;51.166;4.474;2023-04-16T02:55:08;51.75;;;48.60;;
25932;SDS011;13731;51.166;4.474;2023-04-16T02:57:34;46.50;;;43.72;;
25932;SDS011;13731;51.166;4.474;2023-04-16T03:00:00;49.63;;;46.83;;
25932;SDS011;13731;51.166;4.474;2023-04-16T03:02:29;46.80;;;43.90;;
25932;SDS011;13731;51.166;4.474;2023-04-16T03:04:55;44.47;;;41.33;;
25932;SDS011;13731;51.166;4.474;2023-04-16T03:07:21;47.92;;;44.45;;
25932;SDS011;13731;51.166;4.474;2023-04-16T03:09:47;47.95;;;45.17;;
25932;SDS011;13731;51.166;4.474;2023-04-16T03:12:13;49.65;;;46.75;;
25932;SDS011;13731;51.166;4.474;2023-04-16T03:14:39;47.25;;;44.08;;
25932;SDS011;13731;51.166;4.474;2023-04-16T03:17:05;45.38;;;42.47;;
25932;SDS011;13731;51.166;4.474;2023-04-16T03:19:31;50.13;;;47.03;;
25932;SDS011;13731;51.166;4.474;2023-04-16T03:21:57;43.65;;;40.90;;
25932;SDS011;13731;51.166;4.474;2023-04-16T03:24:23;46.10;;;43.70;;
25932;SDS011;13731;51.166;4.474;2023-04-16T03:26:49;49.38;;;46.50;;
25932;SDS011;13731;51.166;4.474;2023-04-16T03:29:15;52.03;;;48.60;;
25932;SDS011;13731;51.166;4.474;2023-04-16T03:31:41;50.83;;;47.97;;
25932;SDS011;13731;51.166;4.474;2023-04-16T03:34:07;51.35;;;48.55;;
25932;SDS011;13731;51.166;4.474;2023-04-16T03:36:33;52.47;;;49.25;;
25932;SDS011;13731;51.166;4.474;2023-04-16T03:38:59;51.08;;;47.80;;
25932;SDS011;13731;51.166;4.474;2023-04-16T03:41:26;54.53;;;51.58;;
25932;SDS011;13731;51.166;4.474;2023-04-16T03:43:52;54.80;;;51.50;;
25932;SDS011;13731;51.166;4.474;2023-04-16T03:46:17;54.97;;;52.13;;
25932;SDS011;13731;51.166;4.474;2023-04-16T03:48:44;55.20;;;51.60;;
25932;SDS011;13731;51.166;4.474;2023-04-16T03:51:11;52.40;;;49.08;;
25932;SDS011;13731;51.166;4.474;2023-04-16T03:53:37;53.17;;;49.95;;
25932;SDS011;13731;51.166;4.474;2023-04-16T03:56:03;52.55;;;49.15;;
25932;SDS011;13731;51.166;4.474;2023-04-16T03:58:29;51.65;;;48.65;;
25932;SDS011;13731;51.166;4.474;2023-04-16T04:00:56;53.33;;;49.88;;
25932;SDS011;13731;51.166;4.474;2023-04-16T04:03:22;50.55;;;47.35;;
25932;SDS011;13731;51.166;4.474;2023-04-16T04:05:51;50.50;;;47.78;;
25932;SDS011;13731;51.166;4.474;2023-04-16T04:08:23;47.40;;;44.78;;
25932;SDS011;13731;51.166;4.474;2023-04-16T04:10:50;59.75;;;56.03;;
25932;SDS011;13731;51.166;4.474;2023-04-16T04:13:18;51.03;;;48.22;;
25932;SDS011;13731;51.166;4.474;2023-04-16T04:15:53;53.95;;;50.97;;
25932;SDS011;13731;51.166;4.474;2023-04-16T04:18:20;52.78;;;49.95;;
25932;SDS011;13731;51.166;4.474;2023-04-16T04:20:46;48.53;;;45.25;;
25932;SDS011;13731;51.166;4.474;2023-04-16T04:23:14;51.77;;;49.03;;
25932;SDS011;13731;51.166;4.474;2023-04-16T04:25:40;45.70;;;43.10;;
25932;SDS011;13731;51.166;4.474;2023-04-16T04:28:06;48.28;;;45.92;;
25932;SDS011;13731;51.166;4.474;2023-04-16T04:30:32;49.83;;;47.13;;
25932;SDS011;13731;51.166;4.474;2023-04-16T04:33:00;49.33;;;46.58;;
25932;SDS011;13731;51.166;4.474;2023-04-16T04:35:26;51.13;;;48.35;;
25932;SDS011;13731;51.166;4.474;2023-04-16T04:37:53;49.03;;;46.42;;
25932;SDS011;13731;51.166;4.474;2023-04-16T04:40:19;51.92;;;49.13;;
25932;SDS011;13731;51.166;4.474;2023-04-16T04:42:45;52.20;;;49.20;;
25932;SDS011;13731;51.166;4.474;2023-04-16T04:45:11;59.47;;;56.25;;
25932;SDS011;13731;51.166;4.474;2023-04-16T04:47:39;52.45;;;49.20;;
25932;SDS011;13731;51.166;4.474;2023-04-16T04:50:05;55.97;;;52.95;;
25932;SDS011;13731;51.166;4.474;2023-04-16T04:52:32;57.53;;;54.38;;
25932;SDS011;13731;51.166;4.474;2023-04-16T04:55:00;55.42;;;52.28;;
25932;SDS011;13731;51.166;4.474;2023-04-16T04:57:26;52.47;;;49.70;;
25932;SDS011;13731;51.166;4.474;2023-04-16T04:59:54;49.28;;;46.58;;
25932;SDS011;13731;51.166;4.474;2023-04-16T05:02:21;49.83;;;47.10;;
25932;SDS011;13731;51.166;4.474;2023-04-16T05:04:47;52.47;;;49.45;;
25932;SDS011;13731;51.166;4.474;2023-04-16T05:07:13;52.17;;;49.38;;
25932;SDS011;13731;51.166;4.474;2023-04-16T05:09:39;54.28;;;51.20;;
25932;SDS011;13731;51.166;4.474;2023-04-16T05:12:04;54.53;;;51.63;;
25932;SDS011;13731;51.166;4.474;2023-04-16T05:14:33;57.03;;;53.58;;
25932;SDS011;13731;51.166;4.474;2023-04-16T05:17:00;54.17;;;51.28;;
25932;SDS011;13731;51.166;4.474;2023-04-16T05:19:26;51.40;;;48.05;;
25932;SDS011;13731;51.166;4.474;2023-04-16T05:21:52;52.67;;;49.65;;
25932;SDS011;13731;51.166;4.474;2023-04-16T05:24:19;46.75;;;43.92;;
25932;SDS011;13731;51.166;4.474;2023-04-16T05:26:45;46.47;;;43.70;;
25932;SDS011;13731;51.166;4.474;2023-04-16T05:29:10;46.83;;;43.70;;
25932;SDS011;13731;51.166;4.474;2023-04-16T05:31:39;50.97;;;47.92;;
25932;SDS011;13731;51.166;4.474;2023-04-16T05:34:07;48.42;;;46.00;;
25932;SDS011;13731;51.166;4.474;2023-04-16T05:39:00;49.53;;;46.13;;
25932;SDS011;13731;51.166;4.474;2023-04-16T05:41:26;53.67;;;50.10;;
25932;SDS011;13731;51.166;4.474;2023-04-16T05:43:52;56.63;;;53.25;;
25932;SDS011;13731;51.166;4.474;2023-04-16T05:46:18;61.22;;;57.67;;
25932;SDS011;13731;51.166;4.474;2023-04-16T05:48:44;62.35;;;58.63;;
25932;SDS011;13731;51.166;4.474;2023-04-16T05:51:10;64.03;;;60.22;;
25932;SDS011;13731;51.166;4.474;2023-04-16T05:53:35;60.35;;;56.80;;
25932;SDS011;13731;51.166;4.474;2023-04-16T05:56:01;62.17;;;58.20;;
25932;SDS011;13731;51.166;4.474;2023-04-16T05:58:27;65.78;;;61.72;;
25932;SDS011;13731;51.166;4.474;2023-04-16T06:00:53;66.55;;;62.53;;
25932;SDS011;13731;51.166;4.474;2023-04-16T06:03:19;62.42;;;58.88;;
25932;SDS011;13731;51.166;4.474;2023-04-16T06:05:45;66.50;;;62.75;;
25932;SDS011;13731;51.166;4.474;2023-04-16T06:08:11;69.88;;;65.63;;
25932;SDS011;13731;51.166;4.474;2023-04-16T06:10:37;69.07;;;64.75;;
25932;SDS011;13731;51.166;4.474;2023-04-16T06:13:03;67.82;;;63.85;;
25932;SDS011;13731;51.166;4.474;2023-04-16T06:15:29;69.28;;;65.03;;
25932;SDS011;13731;51.166;4.474;2023-04-16T06:17:55;69.75;;;65.43;;
25932;SDS011;13731;51.166;4.474;2023-04-16T06:20:21;72.50;;;67.68;;
25932;SDS011;13731;51.166;4.474;2023-04-16T06:22:46;68.60;;;64.68;;
25932;SDS011;13731;51.166;4.474;2023-04-16T06:25:12;65.80;;;61.47;;
25932;SDS011;13731;51.166;4.474;2023-04-16T06:27:38;71.28;;;66.72;;
25932;SDS011;13731;51.166;4.474;2023-04-16T06:30:04;69.03;;;64.80;;
25932;SDS011;13731;51.166;4.474;2023-04-16T06:32:35;67.18;;;63.35;;
25932;SDS011;13731;51.166;4.474;2023-04-16T06:35:01;70.45;;;65.93;;
25932;SDS011;13731;51.166;4.474;2023-04-16T06:37:27;82.53;;;77.32;;
25932;SDS011;13731;51.166;4.474;2023-04-16T06:39:53;99.95;;;94.63;;
25932;SDS011;13731;51.166;4.474;2023-04-16T06:42:19;110.03;;;103.55;;
25932;SDS011;13731;51.166;4.474;2023-04-16T06:44:45;117.53;;;111.03;;
25932;SDS011;13731;51.166;4.474;2023-04-16T06:47:11;132.02;;;124.47;;
25932;SDS011;13731;51.166;4.474;2023-04-16T06:49:36;139.23;;;131.38;;
25932;SDS011;13731;51.166;4.474;2023-04-16T06:52:04;153.07;;;144.63;;
25932;SDS011;13731;51.166;4.474;2023-04-16T06:54:30;162.32;;;153.52;;
25932;SDS011;13731;51.166;4.474;2023-04-16T06:56:56;159.27;;;150.93;;
25932;SDS011;13731;51.166;4.474;2023-04-16T06:59:22;187.32;;;177.68;;
25932;SDS011;13731;51.166;4.474;2023-04-16T07:01:47;190.68;;;180.30;;
25932;SDS011;13731;51.166;4.474;2023-04-16T07:04:13;170.20;;;160.30;;
25932;SDS011;13731;51.166;4.474;2023-04-16T07:06:39;169.80;;;160.60;;
25932;SDS011;13731;51.166;4.474;2023-04-16T07:09:05;162.13;;;153.30;;
25932;SDS011;13731;51.166;4.474;2023-04-16T07:11:31;162.35;;;152.68;;
25932;SDS011;13731;51.166;4.474;2023-04-16T07:13:57;162.98;;;154.20;;
25932;SDS011;13731;51.166;4.474;2023-04-16T07:16:23;170.32;;;160.65;;
25932;SDS011;13731;51.166;4.474;2023-04-16T07:18:48;167.93;;;157.75;;
25932;SDS011;13731;51.166;4.474;2023-04-16T07:21:14;140.02;;;131.82;;
25932;SDS011;13731;51.166;4.474;2023-04-16T07:23:40;123.65;;;116.28;;
25932;SDS011;13731;51.166;4.474;2023-04-16T07:26:06;130.82;;;122.35;;
25932;SDS011;13731;51.166;4.474;2023-04-16T07:28:32;146.45;;;137.55;;
25932;SDS011;13731;51.166;4.474;2023-04-16T07:30:58;118.05;;;110.70;;
25932;SDS011;13731;51.166;4.474;2023-04-16T07:33:24;109.35;;;102.47;;
25932;SDS011;13731;51.166;4.474;2023-04-16T07:35:50;121.07;;;113.78;;
25932;SDS011;13731;51.166;4.474;2023-04-16T07:38:16;126.68;;;118.93;;
25932;SDS011;13731;51.166;4.474;2023-04-16T07:40:42;117.47;;;108.93;;
25932;SDS011;13731;51.166;4.474;2023-04-16T07:43:08;115.38;;;107.22;;
25932;SDS011;13731;51.166;4.474;2023-04-16T07:45:34;127.50;;;119.07;;
25932;SDS011;13731;51.166;4.474;2023-04-16T07:48:00;124.13;;;115.60;;
25932;SDS011;13731;51.166;4.474;2023-04-16T07:50:26;125.03;;;116.90;;
25932;SDS011;13731;51.166;4.474;2023-04-16T07:52:52;121.00;;;112.70;;
25932;SDS011;13731;51.166;4.474;2023-04-16T07:55:18;125.25;;;117.00;;
25932;SDS011;13731;51.166;4.474;2023-04-16T07:57:44;142.27;;;133.73;;
25932;SDS011;13731;51.166;4.474;2023-04-16T08:00:10;135.35;;;127.03;;
25932;SDS011;13731;51.166;4.474;2023-04-16T08:02:39;129.23;;;120.68;;
25932;SDS011;13731;51.166;4.474;2023-04-16T08:05:05;134.85;;;126.57;;
25932;SDS011;13731;51.166;4.474;2023-04-16T08:07:32;130.40;;;122.07;;
25932;SDS011;13731;51.166;4.474;2023-04-16T08:09:58;138.30;;;129.77;;
25932;SDS011;13731;51.166;4.474;2023-04-16T08:12:24;137.15;;;128.82;;
25932;SDS011;13731;51.166;4.474;2023-04-16T08:14:49;130.32;;;121.75;;
25932;SDS011;13731;51.166;4.474;2023-04-16T08:17:15;125.05;;;116.72;;
25932;SDS011;13731;51.166;4.474;2023-04-16T08:19:44;127.47;;;119.07;;
25932;SDS011;13731;51.166;4.474;2023-04-16T08:22:11;136.48;;;127.10;;
25932;SDS011;13731;51.166;4.474;2023-04-16T08:24:37;127.57;;;119.05;;
25932;SDS011;13731;51.166;4.474;2023-04-16T08:27:03;133.50;;;123.88;;
25932;SDS011;13731;51.166;4.474;2023-04-16T08:29:30;133.45;;;124.57;;
25932;SDS011;13731;51.166;4.474;2023-04-16T08:31:56;141.20;;;132.18;;
25932;SDS011;13731;51.166;4.474;2023-04-16T08:34:23;138.05;;;129.30;;
25932;SDS011;13731;51.166;4.474;2023-04-16T08:36:49;128.45;;;119.88;;
25932;SDS011;13731;51.166;4.474;2023-04-16T08:39:14;128.00;;;118.65;;
25932;SDS011;13731;51.166;4.474;2023-04-16T08:41:41;132.38;;;124.25;;
25932;SDS011;13731;51.166;4.474;2023-04-16T08:44:12;151.35;;;142.18;;
25932;SDS011;13731;51.166;4.474;2023-04-16T08:46:43;135.52;;;126.05;;
25932;SDS011;13731;51.166;4.474;2023-04-16T08:49:12;146.18;;;136.35;;
25932;SDS011;13731;51.166;4.474;2023-04-16T08:51:44;142.60;;;133.65;;
25932;SDS011;13731;51.166;4.474;2023-04-16T08:54:20;153.13;;;143.70;;
25932;SDS011;13731;51.166;4.474;2023-04-16T08:57:07;150.52;;;140.82;;
25932;SDS011;13731;51.166;4.474;2023-04-16T08:59:37;145.35;;;136.23;;
25932;SDS011;13731;51.166;4.474;2023-04-16T09:02:03;136.73;;;127.80;;
25932;SDS011;13731;51.166;4.474;2023-04-16T09:04:30;139.45;;;131.27;;
25932;SDS011;13731;51.166;4.474;2023-04-16T09:06:57;131.18;;;123.05;;
25932;SDS011;13731;51.166;4.474;2023-04-16T09:09:26;141.05;;;132.18;;
25932;SDS011;13731;51.166;4.474;2023-04-16T09:14:20;123.20;;;115.00;;
25932;SDS011;13731;51.166;4.474;2023-04-16T09:16:46;128.32;;;120.13;;
25932;SDS011;13731;51.166;4.474;2023-04-16T09:19:13;134.32;;;125.68;;
25932;SDS011;13731;51.166;4.474;2023-04-16T09:21:40;125.50;;;117.15;;
25932;SDS011;13731;51.166;4.474;2023-04-16T09:24:07;125.22;;;117.47;;
25932;SDS011;13731;51.166;4.474;2023-04-16T09:26:34;137.05;;;128.27;;
25932;SDS011;13731;51.166;4.474;2023-04-16T09:29:01;117.75;;;110.32;;
25932;SDS011;13731;51.166;4.474;2023-04-16T09:31:27;118.50;;;110.80;;
25932;SDS011;13731;51.166;4.474;2023-04-16T09:34:00;121.60;;;114.18;;
25932;SDS011;13731;51.166;4.474;2023-04-16T09:36:28;123.72;;;115.68;;
25932;SDS011;13731;51.166;4.474;2023-04-16T09:38:54;128.35;;;120.60;;
25932;SDS011;13731;51.166;4.474;2023-04-16T09:41:24;127.10;;;118.72;;
25932;SDS011;13731;51.166;4.474;2023-04-16T09:43:56;135.57;;;127.97;;
25932;SDS011;13731;51.166;4.474;2023-04-16T09:46:23;121.32;;;113.60;;
25932;SDS011;13731;51.166;4.474;2023-04-16T09:48:54;125.63;;;117.75;;
25932;SDS011;13731;51.166;4.474;2023-04-16T09:51:19;112.13;;;104.90;;
25932;SDS011;13731;51.166;4.474;2023-04-16T09:53:45;114.30;;;107.32;;
25932;SDS011;13731;51.166;4.474;2023-04-16T09:56:15;123.05;;;115.60;;
25932;SDS011;13731;51.166;4.474;2023-04-16T09:58:41;124.20;;;116.70;;
25932;SDS011;13731;51.166;4.474;2023-04-16T10:01:08;130.93;;;123.05;;
25932;SDS011;13731;51.166;4.474;2023-04-16T10:03:37;133.40;;;124.72;;
25932;SDS011;13731;51.166;4.474;2023-04-16T10:06:14;123.47;;;115.93;;
25932;SDS011;13731;51.166;4.474;2023-04-16T10:08:43;118.22;;;111.22;;
25932;SDS011;13731;51.166;4.474;2023-04-16T10:11:11;108.75;;;102.30;;
25932;SDS011;13731;51.166;4.474;2023-04-16T10:13:37;112.35;;;105.93;;
25932;SDS011;13731;51.166;4.474;2023-04-16T10:16:03;97.32;;;91.32;;
25932;SDS011;13731;51.166;4.474;2023-04-16T10:18:30;94.55;;;88.07;;
25932;SDS011;13731;51.166;4.474;2023-04-16T10:20:56;90.13;;;84.68;;
25932;SDS011;13731;51.166;4.474;2023-04-16T10:23:22;91.00;;;85.30;;
25932;SDS011;13731;51.166;4.474;2023-04-16T10:25:48;83.93;;;78.13;;
25932;SDS011;13731;51.166;4.474;2023-04-16T10:28:15;77.43;;;72.68;;
25932;SDS011;13731;51.166;4.474;2023-04-16T16:16:55;64.07;;;59.40;;
25932;SDS011;13731;51.166;4.474;2023-04-16T16:19:21;70.93;;;66.68;;
25932;SDS011;13731;51.166;4.474;2023-04-16T16:23:11;73.88;;;69.05;;
25932;SDS011;13731;51.166;4.474;2023-04-16T16:25:37;79.38;;;74.45;;
25932;SDS011;13731;51.166;4.474;2023-04-16T16:28:03;71.68;;;66.97;;
25932;SDS011;13731;51.166;4.474;2023-04-16T16:30:30;60.58;;;56.63;;
25932;SDS011;13731;51.166;4.474;2023-04-16T16:32:56;59.70;;;55.15;;
25932;SDS011;13731;51.166;4.474;2023-04-16T16:35:22;60.03;;;56.03;;
25932;SDS011;13731;51.166;4.474;2023-04-16T16:37:50;66.38;;;61.72;;
25932;SDS011;13731;51.166;4.474;2023-04-16T16:40:20;70.05;;;65.55;;
25932;SDS011;13731;51.166;4.474;2023-04-16T16:42:46;69.07;;;64.80;;
25932;SDS011;13731;51.166;4.474;2023-04-16T16:45:12;72.43;;;67.78;;
25932;SDS011;13731;51.166;4.474;2023-04-16T16:47:37;75.03;;;70.10;;
25932;SDS011;13731;51.166;4.474;2023-04-16T16:50:03;73.90;;;69.32;;
25932;SDS011;13731;51.166;4.474;2023-04-16T16:52:30;72.07;;;66.65;;
25932;SDS011;13731;51.166;4.474;2023-04-16T16:54:56;68.72;;;64.05;;
25932;SDS011;13731;51.166;4.474;2023-04-16T16:57:22;69.45;;;64.82;;
25932;SDS011;13731;51.166;4.474;2023-04-16T16:59:49;67.22;;;63.00;;
25932;SDS011;13731;51.166;4.474;2023-04-16T17:02:18;68.68;;;63.92;;
25932;SDS011;13731;51.166;4.474;2023-04-16T17:04:44;66.38;;;62.03;;
25932;SDS011;13731;51.166;4.474;2023-04-16T17:07:10;71.78;;;66.45;;
25932;SDS011;13731;51.166;4.474;2023-04-16T17:09:36;67.13;;;62.50;;
25932;SDS011;13731;51.166;4.474;2023-04-16T17:12:03;69.25;;;64.43;;
25932;SDS011;13731;51.166;4.474;2023-04-16T17:14:30;64.05;;;59.45;;
25932;SDS011;13731;51.166;4.474;2023-04-16T17:16:56;66.07;;;61.75;;
25932;SDS011;13731;51.166;4.474;2023-04-16T17:19:23;65.53;;;61.20;;
25932;SDS011;13731;51.166;4.474;2023-04-16T17:21:49;60.88;;;57.20;;
25932;SDS011;13731;51.166;4.474;2023-04-16T17:24:15;65.32;;;60.55;;
25932;SDS011;13731;51.166;4.474;2023-04-16T17:26:42;63.38;;;58.88;;
25932;SDS011;13731;51.166;4.474;2023-04-16T17:29:08;63.17;;;58.63;;
25932;SDS011;13731;51.166;4.474;2023-04-16T17:31:34;67.05;;;62.65;;
25932;SDS011;13731;51.166;4.474;2023-04-16T17:34:00;61.00;;;56.55;;
25932;SDS011;13731;51.166;4.474;2023-04-16T17:36:28;62.30;;;58.13;;
25932;SDS011;13731;51.166;4.474;2023-04-16T17:38:55;62.92;;;58.35;;
25932;SDS011;13731;51.166;4.474;2023-04-16T17:41:22;65.85;;;61.15;;
25932;SDS011;13731;51.166;4.474;2023-04-16T17:43:48;64.00;;;59.83;;
25932;SDS011;13731;51.166;4.474;2023-04-16T17:46:14;64.40;;;59.85;;
25932;SDS011;13731;51.166;4.474;2023-04-16T17:48:40;65.47;;;61.28;;
25932;SDS011;13731;51.166;4.474;2023-04-16T17:51:11;62.08;;;58.00;;
25932;SDS011;13731;51.166;4.474;2023-04-16T17:53:38;61.65;;;57.45;;
25932;SDS011;13731;51.166;4.474;2023-04-16T17:56:06;66.47;;;61.88;;
25932;SDS011;13731;51.166;4.474;2023-04-16T17:58:32;64.00;;;59.25;;
25932;SDS011;13731;51.166;4.474;2023-04-16T18:00:59;62.35;;;58.22;;
25932;SDS011;13731;51.166;4.474;2023-04-16T18:03:26;65.90;;;60.90;;
25932;SDS011;13731;51.166;4.474;2023-04-16T18:05:52;64.10;;;59.80;;
25932;SDS011;13731;51.166;4.474;2023-04-16T18:08:18;63.78;;;59.60;;
25932;SDS011;13731;51.166;4.474;2023-04-16T18:10:43;62.80;;;58.13;;
25932;SDS011;13731;51.166;4.474;2023-04-16T18:13:09;65.78;;;61.38;;
25932;SDS011;13731;51.166;4.474;2023-04-16T18:15:35;67.50;;;63.00;;
25932;SDS011;13731;51.166;4.474;2023-04-16T18:18:06;69.53;;;64.78;;
25932;SDS011;13731;51.166;4.474;2023-04-16T18:20:32;67.80;;;63.28;;
25932;SDS011;13731;51.166;4.474;2023-04-16T18:22:58;71.30;;;66.65;;
25932;SDS011;13731;51.166;4.474;2023-04-16T18:25:24;66.97;;;62.67;;
25932;SDS011;13731;51.166;4.474;2023-04-16T18:27:50;71.72;;;67.35;;
25932;SDS011;13731;51.166;4.474;2023-04-16T18:30:16;71.85;;;66.65;;
25932;SDS011;13731;51.166;4.474;2023-04-16T18:32:43;74.10;;;69.28;;
25932;SDS011;13731;51.166;4.474;2023-04-16T18:35:09;70.15;;;65.65;;
25932;SDS011;13731;51.166;4.474;2023-04-16T18:37:35;70.47;;;65.93;;
25932;SDS011;13731;51.166;4.474;2023-04-16T18:40:01;67.35;;;62.63;;
25932;SDS011;13731;51.166;4.474;2023-04-16T18:42:30;75.93;;;71.25;;
25932;SDS011;13731;51.166;4.474;2023-04-16T18:44:56;72.53;;;67.65;;
25932;SDS011;13731;51.166;4.474;2023-04-16T18:47:22;74.30;;;69.40;;
25932;SDS011;13731;51.166;4.474;2023-04-16T18:49:48;71.60;;;66.70;;
25932;SDS011;13731;51.166;4.474;2023-04-16T18:52:13;66.63;;;62.17;;
25932;SDS011;13731;51.166;4.474;2023-04-16T18:54:39;72.50;;;67.47;;
25932;SDS011;13731;51.166;4.474;2023-04-16T18:57:05;69.43;;;63.75;;
25932;SDS011;13731;51.166;4.474;2023-04-16T18:59:31;74.82;;;69.25;;
25932;SDS011;13731;51.166;4.474;2023-04-16T19:01:57;72.90;;;67.85;;
25932;SDS011;13731;51.166;4.474;2023-04-16T19:04:23;76.45;;;70.40;;
25932;SDS011;13731;51.166;4.474;2023-04-16T19:06:49;75.85;;;70.03;;
25932;SDS011;13731;51.166;4.474;2023-04-16T19:09:15;78.95;;;73.00;;
25932;SDS011;13731;51.166;4.474;2023-04-16T19:11:41;74.78;;;69.68;;
25932;SDS011;13731;51.166;4.474;2023-04-16T19:14:07;74.90;;;69.28;;
25932;SDS011;13731;51.166;4.474;2023-04-16T19:16:33;77.68;;;72.10;;
25932;SDS011;13731;51.166;4.474;2023-04-16T19:18:59;74.63;;;69.68;;
25932;SDS011;13731;51.166;4.474;2023-04-16T19:21:25;74.70;;;69.60;;
25932;SDS011;13731;51.166;4.474;2023-04-16T19:23:51;68.47;;;63.67;;
25932;SDS011;13731;51.166;4.474;2023-04-16T19:26:18;63.13;;;58.65;;
25932;SDS011;13731;51.166;4.474;2023-04-16T19:28:44;64.60;;;59.72;;
25932;SDS011;13731;51.166;4.474;2023-04-16T19:31:10;68.68;;;63.65;;
25932;SDS011;13731;51.166;4.474;2023-04-16T19:33:36;67.65;;;62.65;;
25932;SDS011;13731;51.166;4.474;2023-04-16T19:36:02;72.45;;;67.15;;
25932;SDS011;13731;51.166;4.474;2023-04-16T19:38:28;73.18;;;67.82;;
25932;SDS011;13731;51.166;4.474;2023-04-16T19:40:56;80.65;;;75.25;;
25932;SDS011;13731;51.166;4.474;2023-04-16T19:43:22;79.10;;;72.82;;
25932;SDS011;13731;51.166;4.474;2023-04-16T19:45:48;78.43;;;73.03;;
25932;SDS011;13731;51.166;4.474;2023-04-16T19:48:20;72.93;;;67.50;;
25932;SDS011;13731;51.166;4.474;2023-04-16T19:50:46;70.47;;;65.20;;
25932;SDS011;13731;51.166;4.474;2023-04-16T19:53:12;70.63;;;65.25;;
25932;SDS011;13731;51.166;4.474;2023-04-16T19:55:40;74.57;;;69.30;;
25932;SDS011;13731;51.166;4.474;2023-04-16T19:58:06;76.53;;;70.38;;
25932;SDS011;13731;51.166;4.474;2023-04-16T20:00:36;79.55;;;73.75;;
25932;SDS011;13731;51.166;4.474;2023-04-16T20:03:04;80.20;;;74.00;;
25932;SDS011;13731;51.166;4.474;2023-04-16T20:05:30;79.00;;;72.50;;
25932;SDS011;13731;51.166;4.474;2023-04-16T20:07:56;78.95;;;73.03;;